METAR = LIPX 242120Z 04006KT CAVOK 19/15 Q1007

STAZIONE.................. LIPX
ORA METAR................. Tue May 24, 23:20 CEST
ORA ATTUALE............... Tue May 24, 23:49 CEST
TEMPO TRASCORSO........... 29 minuti fa
VENTO..................... NE a 7 mph
VISIBILITA'............... maggiore di 10 chilometri
NUVOLE.................... cielo limpido
TEMPERATURA............... 66°F (19°C)
PUNTO RUGIADA............. 59°F (15°C)
UMIDITA'.................. 78%
PRESSIONE................. 1007 hPa (29.74 in Hg)


Informazioni per la stazione LIPX